createdAt,value
2022-11-02T00:02:57.798Z,11.87
2022-11-02T00:06:59.607Z,11.90
2022-11-02T00:11:01.258Z,11.93
2022-11-02T00:15:03.757Z,11.96
2022-11-02T00:19:06.565Z,11.99
2022-11-02T00:23:10.906Z,12.02
2022-11-02T00:27:12.959Z,11.75
2022-11-02T00:31:14.689Z,11.31
2022-11-02T00:35:17.055Z,11.11
2022-11-02T00:39:18.705Z,11.16
2022-11-02T00:43:20.374Z,11.21
2022-11-02T00:47:22.124Z,11.26
2022-11-02T00:51:23.821Z,11.29
2022-11-02T00:55:25.548Z,11.29
2022-11-02T00:59:31.104Z,11.27
2022-11-02T01:03:32.916Z,11.24
2022-11-02T01:07:34.722Z,11.16
2022-11-02T01:11:36.484Z,11.10
2022-11-02T01:15:38.360Z,11.05
2022-11-02T01:19:41.039Z,11.03
2022-11-02T01:23:42.719Z,10.98
2022-11-02T01:27:46.161Z,10.93
2022-11-02T01:31:48.715Z,10.89
2022-11-02T01:35:52.491Z,10.84
2022-11-02T01:39:54.168Z,10.85
2022-11-02T01:43:59.064Z,10.82
2022-11-02T01:48:00.923Z,10.80
2022-11-02T01:52:08.664Z,10.76
2022-11-02T01:56:14.459Z,10.75
2022-11-02T02:00:18.327Z,10.80
2022-11-02T02:04:21.068Z,10.85
2022-11-02T02:08:25.551Z,10.91
2022-11-02T02:12:29.380Z,10.98
2022-11-02T02:16:34.041Z,11.04
2022-11-02T02:20:45.067Z,11.10
2022-11-02T02:24:56.665Z,11.16
2022-11-02T02:29:03.528Z,11.19
2022-11-02T02:33:12.353Z,11.23
2022-11-02T02:37:19.036Z,11.27
2022-11-02T02:41:30.904Z,11.28
2022-11-02T02:45:40.453Z,11.31
2022-11-02T02:49:51.617Z,11.34
2022-11-02T02:54:07.849Z,11.39
2022-11-02T02:58:16.489Z,11.43
2022-11-02T03:02:24.748Z,11.46
2022-11-02T03:06:31.799Z,11.45
2022-11-02T03:10:44.741Z,11.39
2022-11-02T03:15:01.739Z,11.34
2022-11-02T03:19:20.402Z,11.31
2022-11-02T03:23:45.498Z,11.31
2022-11-02T03:28:03.724Z,11.30
2022-11-02T03:32:45.688Z,11.31
2022-11-02T03:37:17.363Z,11.32
2022-11-02T03:41:22.567Z,11.31
2022-11-02T03:45:30.092Z,11.29
2022-11-02T03:49:35.491Z,11.31
2022-11-02T03:54:02.843Z,11.33
2022-11-02T03:58:06.498Z,11.37
2022-11-02T04:02:11.570Z,11.39
2022-11-02T04:06:14.694Z,11.41
2022-11-02T04:10:16.445Z,11.41
2022-11-02T04:14:36.914Z,11.40
2022-11-02T04:18:58.916Z,11.35
2022-11-02T04:23:19.977Z,11.25
2022-11-02T04:27:22.903Z,11.15
2022-11-02T04:31:26.426Z,11.15
2022-11-02T04:35:29.301Z,11.13
2022-11-02T04:39:31.327Z,11.12
2022-11-02T04:43:34.579Z,11.07
2022-11-02T04:47:36.935Z,11.07
2022-11-02T04:51:43.324Z,11.05
2022-11-02T04:55:47.556Z,11.04
2022-11-02T04:59:49.458Z,11.04
2022-11-02T05:03:52.664Z,11.04
2022-11-02T05:07:54.625Z,11.06
2022-11-02T05:11:57.768Z,11.10
2022-11-02T05:16:00.684Z,11.13
2022-11-02T05:20:05.085Z,11.18
2022-11-02T05:24:07.636Z,11.24
2022-11-02T05:28:10.217Z,11.27
2022-11-02T05:32:12.039Z,11.28
2022-11-02T05:36:14.356Z,11.29
2022-11-02T05:40:19.839Z,11.24
2022-11-02T05:44:22.413Z,11.18
2022-11-02T05:48:25.668Z,11.16
2022-11-02T05:52:27.353Z,11.14
2022-11-02T05:56:29.069Z,11.14
2022-11-02T06:00:30.773Z,11.16
2022-11-02T06:04:32.444Z,11.18
2022-11-02T06:08:36.105Z,11.19
2022-11-02T06:12:37.758Z,11.21
2022-11-02T06:16:39.516Z,11.17
2022-11-02T06:20:41.215Z,11.16
2022-11-02T06:24:42.861Z,11.23
2022-11-02T06:28:44.540Z,11.24
2022-11-02T06:32:52.617Z,11.23
2022-11-02T06:36:54.289Z,11.22
2022-11-02T06:41:03.444Z,11.24
2022-11-02T06:45:06.596Z,11.22
2022-11-02T06:49:08.245Z,11.22
2022-11-02T06:53:10.101Z,11.26
2022-11-02T06:57:11.818Z,11.27
2022-11-02T07:01:15.474Z,11.28
2022-11-02T07:05:17.266Z,11.27
2022-11-02T07:09:18.979Z,11.30
2022-11-02T07:13:20.905Z,11.29
2022-11-02T07:17:22.596Z,11.28
2022-11-02T07:21:24.371Z,11.28
2022-11-02T07:25:28.646Z,11.30
2022-11-02T07:29:30.316Z,11.33
2022-11-02T07:33:32.335Z,11.41
2022-11-02T07:37:34.019Z,11.41
2022-11-02T07:41:36.099Z,11.38
2022-11-02T07:45:37.766Z,11.45
2022-11-02T07:49:39.451Z,11.47
2022-11-02T07:53:41.209Z,11.52
2022-11-02T07:57:43.832Z,11.60
2022-11-02T08:01:45.785Z,11.63
2022-11-02T08:05:47.492Z,11.65
2022-11-02T08:09:49.170Z,11.67
2022-11-02T08:13:50.810Z,11.66
2022-11-02T08:18:15.621Z,11.69
2022-11-02T08:22:17.281Z,11.68
2022-11-02T08:26:18.923Z,11.68
2022-11-02T08:30:20.623Z,11.70
2022-11-02T08:34:22.315Z,11.75
2022-11-02T08:38:24.011Z,11.77
2022-11-02T08:42:25.992Z,11.83
2022-11-02T08:46:27.725Z,11.88
2022-11-02T08:50:29.408Z,11.95
2022-11-02T08:54:31.069Z,11.99
2022-11-02T08:58:32.832Z,12.04
2022-11-02T09:02:34.527Z,12.07
2022-11-02T09:06:36.518Z,12.12
2022-11-02T09:10:38.301Z,12.15
2022-11-02T09:14:40.074Z,12.20
2022-11-02T09:18:41.819Z,12.25
2022-11-02T09:22:44.478Z,12.29
2022-11-02T09:26:46.322Z,12.35
2022-11-02T09:30:48.186Z,12.45
2022-11-02T09:34:50.679Z,12.50
2022-11-02T09:38:52.373Z,12.55
2022-11-02T09:43:31.929Z,12.61
2022-11-02T09:48:24.914Z,12.65
2022-11-02T09:52:18.431Z,12.68
2022-11-02T09:56:20.306Z,12.74
2022-11-02T10:00:22.025Z,12.77
2022-11-02T10:04:51.225Z,12.83
2022-11-02T10:09:01.627Z,12.88
2022-11-02T10:13:10.698Z,12.91
2022-11-02T10:17:18.747Z,12.88
2022-11-02T10:21:31.514Z,12.82
2022-11-02T10:25:35.184Z,12.80
2022-11-02T10:29:48.584Z,12.80
2022-11-02T10:33:52.885Z,12.82
2022-11-02T10:38:14.965Z,12.90
2022-11-02T10:42:43.866Z,13.03
2022-11-02T10:46:59.623Z,13.15
2022-11-02T10:51:12.945Z,13.16
2022-11-02T10:55:36.779Z,13.18
2022-11-02T10:59:38.588Z,13.18
2022-11-02T11:04:07.104Z,13.19
2022-11-02T11:08:29.287Z,13.21
2022-11-02T11:12:34.314Z,13.30
2022-11-02T11:16:41.323Z,13.39
2022-11-02T11:20:43.349Z,13.37
2022-11-02T11:24:45.056Z,13.41
2022-11-02T11:28:57.056Z,13.45
2022-11-02T11:33:01.207Z,13.45
2022-11-02T11:37:12.714Z,13.41
2022-11-02T11:41:14.430Z,13.37
2022-11-02T11:45:27.972Z,13.38
2022-11-02T11:49:55.450Z,13.46
2022-11-02T11:54:25.385Z,13.50
2022-11-02T11:58:28.269Z,13.52
2022-11-02T12:02:41.024Z,13.52
2022-11-02T12:07:00.692Z,13.46
2022-11-02T12:11:21.120Z,13.43
2022-11-02T12:15:42.340Z,13.41
2022-11-02T12:20:11.825Z,13.42
2022-11-02T12:24:29.172Z,13.41
2022-11-02T12:28:39.880Z,13.44
2022-11-02T12:32:51.342Z,13.43
2022-11-02T12:37:35.344Z,13.42
2022-11-02T12:41:51.364Z,13.45
2022-11-02T12:46:37.974Z,13.52
2022-11-02T12:51:02.728Z,13.51
2022-11-02T12:55:16.907Z,13.52
2022-11-02T12:59:24.438Z,13.56
2022-11-02T13:03:39.873Z,13.58
2022-11-02T13:07:47.584Z,13.56
2022-11-02T13:12:14.757Z,13.56
2022-11-02T13:16:20.798Z,13.56
2022-11-02T13:20:45.091Z,13.54
2022-11-02T13:24:56.165Z,13.48
2022-11-02T13:29:05.805Z,13.44
2022-11-02T13:33:21.131Z,13.49
2022-11-02T13:37:41.488Z,13.56
2022-11-02T13:42:09.661Z,13.55
2022-11-02T13:46:23.387Z,13.51
2022-11-02T13:50:27.648Z,13.46
2022-11-02T13:54:42.037Z,13.42
2022-11-02T13:58:50.803Z,13.43
2022-11-02T14:03:03.589Z,13.42
2022-11-02T14:07:19.181Z,13.43
2022-11-02T14:11:20.766Z,13.42
2022-11-02T14:15:22.433Z,13.37
2022-11-02T14:19:32.064Z,13.34
2022-11-02T14:23:36.355Z,13.33
2022-11-02T14:27:38.160Z,13.31
2022-11-02T14:31:50.173Z,13.30
2022-11-02T14:36:18.721Z,13.30
2022-11-02T14:40:33.359Z,13.28
2022-11-02T14:44:51.063Z,13.25
2022-11-02T14:48:57.775Z,13.23
2022-11-02T14:53:10.343Z,13.19
2022-11-02T14:57:33.204Z,13.14
2022-11-02T15:01:35.348Z,13.08
2022-11-02T15:05:39.559Z,13.04
2022-11-02T15:10:01.087Z,13.00
2022-11-02T15:14:02.790Z,12.95
2022-11-02T15:18:21.148Z,12.88
2022-11-02T15:22:28.940Z,12.86
2022-11-02T15:26:42.158Z,12.83
2022-11-02T15:30:49.292Z,12.79
2022-11-02T15:34:53.656Z,12.75
2022-11-02T15:38:56.324Z,12.72
2022-11-02T15:43:19.757Z,12.67
2022-11-02T15:47:48.134Z,12.61
2022-11-02T15:52:07.983Z,12.57
2022-11-02T15:56:19.083Z,12.54
2022-11-02T16:00:30.386Z,12.52
2022-11-02T16:04:33.962Z,12.48
2022-11-02T16:08:39.351Z,12.46
2022-11-02T16:12:41.026Z,12.44
2022-11-02T16:16:47.923Z,12.44
2022-11-02T16:20:50.159Z,12.42
2022-11-02T16:24:53.895Z,12.38
2022-11-02T16:28:58.634Z,12.38
2022-11-02T16:33:01.044Z,12.36
2022-11-02T16:37:09.922Z,12.33
2022-11-02T16:41:14.964Z,12.30
2022-11-02T16:45:50.320Z,12.27
2022-11-02T16:49:51.942Z,12.26
2022-11-02T16:53:53.656Z,12.25
2022-11-02T16:57:55.334Z,12.22
2022-11-02T17:02:01.859Z,12.20
2022-11-02T17:06:07.093Z,12.18
2022-11-02T17:10:24.166Z,12.17
2022-11-02T17:14:27.568Z,12.15
2022-11-02T17:18:29.417Z,12.16
2022-11-02T17:22:36.608Z,12.17
2022-11-02T17:26:38.453Z,12.16
2022-11-02T17:30:42.600Z,12.17
2022-11-02T17:34:56.280Z,12.15
2022-11-02T17:39:02.269Z,12.16
2022-11-02T17:43:11.368Z,12.17
2022-11-02T17:47:16.633Z,12.17
2022-11-02T17:51:21.341Z,12.15
2022-11-02T17:55:25.225Z,12.15
2022-11-02T17:59:26.861Z,12.14
2022-11-02T18:03:31.397Z,12.15
2022-11-02T18:07:33.171Z,12.14
2022-11-02T18:11:34.942Z,12.13
2022-11-02T18:15:36.658Z,12.13
2022-11-02T18:19:38.346Z,12.12
2022-11-02T18:23:41.239Z,12.10
2022-11-02T18:27:43.902Z,12.11
2022-11-02T18:31:45.565Z,12.10
2022-11-02T18:35:47.380Z,12.10
2022-11-02T18:39:49.567Z,12.08
2022-11-02T18:43:51.283Z,12.06
2022-11-02T18:47:55.888Z,12.06
2022-11-02T18:51:57.569Z,12.04
2022-11-02T18:56:03.617Z,12.04
2022-11-02T19:00:05.760Z,12.04
2022-11-02T19:04:07.418Z,12.05
2022-11-02T19:08:28.720Z,12.05
2022-11-02T19:12:31.169Z,12.06
2022-11-02T19:16:32.976Z,12.05
2022-11-02T19:20:34.643Z,12.03
2022-11-02T19:24:36.349Z,12.04
2022-11-02T19:28:38.046Z,12.01
2022-11-02T19:32:39.668Z,12.00
2022-11-02T19:36:41.683Z,12.00
2022-11-02T19:40:43.335Z,11.98
2022-11-02T19:44:45.000Z,11.97
2022-11-02T19:48:47.233Z,11.97
2022-11-02T19:52:49.883Z,11.95
2022-11-02T19:56:51.525Z,11.96
2022-11-02T20:00:53.558Z,11.94
2022-11-02T20:04:55.241Z,11.95
2022-11-02T20:08:58.075Z,11.94
2022-11-02T20:12:59.831Z,11.93
2022-11-02T20:17:25.243Z,11.92
2022-11-02T20:21:32.311Z,11.90
2022-11-02T20:25:37.790Z,11.90
2022-11-02T20:29:40.726Z,11.91
2022-11-02T20:33:42.901Z,11.91
2022-11-02T20:37:44.593Z,11.89
2022-11-02T20:41:46.375Z,11.89
2022-11-02T20:45:48.015Z,11.90
2022-11-02T20:49:51.175Z,11.92
2022-11-02T20:53:53.118Z,11.91
2022-11-02T20:57:54.761Z,11.91
2022-11-02T21:01:56.610Z,11.91
2022-11-02T21:05:58.525Z,11.91
2022-11-02T21:10:00.171Z,11.92
2022-11-02T21:14:01.862Z,11.94
2022-11-02T21:18:03.772Z,11.95
2022-11-02T21:22:05.465Z,11.97
2022-11-02T21:26:09.542Z,11.98
2022-11-02T21:30:11.625Z,11.95
2022-11-02T21:34:13.295Z,11.95
2022-11-02T21:38:14.965Z,11.94
2022-11-02T21:42:16.673Z,11.94
2022-11-02T21:46:21.988Z,11.97
2022-11-02T21:50:23.751Z,11.95
2022-11-02T21:54:25.474Z,11.95
2022-11-02T21:58:27.594Z,11.96
2022-11-02T22:02:29.565Z,11.93
2022-11-02T22:06:32.016Z,11.93
2022-11-02T22:10:33.903Z,11.93
2022-11-02T22:14:39.593Z,11.95
2022-11-02T22:18:42.841Z,11.96
2022-11-02T22:22:45.223Z,11.97
2022-11-02T22:26:46.960Z,11.97
2022-11-02T22:30:48.909Z,11.96
2022-11-02T22:34:50.678Z,11.94
2022-11-02T22:38:56.167Z,11.92
2022-11-02T22:42:57.921Z,11.92
2022-11-02T22:46:59.666Z,11.88
2022-11-02T22:51:02.731Z,11.88
2022-11-02T22:55:04.671Z,11.92
2022-11-02T22:59:06.629Z,11.92
2022-11-02T23:03:08.716Z,11.93
2022-11-02T23:07:10.924Z,11.95
2022-11-02T23:11:23.832Z,11.96
2022-11-02T23:15:25.687Z,12.00
2022-11-02T23:19:30.010Z,11.98
2022-11-02T23:24:01.213Z,11.99
2022-11-02T23:28:21.388Z,11.99
2022-11-02T23:32:25.972Z,12.01
2022-11-02T23:36:27.639Z,12.00
2022-11-02T23:40:29.355Z,12.00
2022-11-02T23:44:31.486Z,12.00
2022-11-02T23:48:33.179Z,11.99
2022-11-02T23:52:53.379Z,11.98
2022-11-02T23:56:55.174Z,11.96
